Time;durP1;ratioP1;P1;durP2;ratioP2;P2;SDS_P1;SDS_P2;PMS_P1;PMS_P2;Temp;Humidity;BMP_temperature;BMP_pressure;BME280_temperature;BME280_humidity;BME280_pressure;Samples;Min_cycle;Max_cycle;Signal;HPM_P1;HPM_P2
2023/07/07 00:00:55;;;;;;;7.55;4.13;;;;;;;10.02;100.00;93330.69;2543540;23;20019;-84
2023/07/07 00:02:17;;;;;;;6.35;3.80;;;;;;;9.94;100.00;93323.97;2533121;23;20002;-86
2023/07/07 00:03:33;;;;;;;6.88;4.10;;;;;;;10.01;100.00;93329.19;2537374;23;20010;-83
2023/07/07 00:04:49;;;;;;;7.70;4.57;;;;;;;9.97;100.00;93325.81;2535631;23;20007;-83
2023/07/07 00:06:07;;;;;;;8.15;3.90;;;;;;;9.94;100.00;93334.63;2537282;23;20010;-85
2023/07/07 00:07:15;;;;;;;6.72;3.78;;;;;;;10.00;100.00;93333.00;2535876;23;20440;-84
2023/07/07 00:08:20;;;;;;;6.78;4.18;;;;;;;9.90;100.00;93331.28;2535837;23;20014;-84
2023/07/07 00:09:29;;;;;;;6.72;3.88;;;;;;;9.95;100.00;93332.72;2522332;23;20007;-84
2023/07/07 00:10:45;;;;;;;7.25;4.00;;;;;;;9.90;100.00;93327.84;2513332;23;20066;-85
2023/07/07 00:12:00;;;;;;;10.88;3.97;;;;;;;9.82;100.00;93324.53;2523046;23;20003;-83
2023/07/07 00:13:11;;;;;;;7.97;4.63;;;;;;;9.88;100.00;93330.94;2531742;23;20002;-82
2023/07/07 00:14:29;;;;;;;5.85;3.95;;;;;;;9.85;100.00;93329.06;2528292;23;20002;-83
2023/07/07 00:15:51;;;;;;;7.90;4.18;;;;;;;9.88;100.00;93330.94;2512744;23;20145;-84
2023/07/07 00:17:01;;;;;;;5.47;4.07;;;;;;;9.81;100.00;93329.13;2504743;23;20007;-84
2023/07/07 00:18:48;;;;;;;;;;;;;;;;;;;;;
2023/07/07 00:19:54;;;;;;;7.07;3.90;;;;;;;9.86;100.00;93335.91;2532569;23;20084;-83
2023/07/07 00:21:09;;;;;;;10.18;3.88;;;;;;;9.84;100.00;93330.22;2521379;23;20025;-84
2023/07/07 00:22:14;;;;;;;6.57;4.75;;;;;;;9.84;100.00;93336.31;2511130;23;20458;-82
2023/07/07 00:23:28;;;;;;;6.60;3.90;;;;;;;9.83;100.00;93332.16;2523215;23;20016;-85
2023/07/07 00:24:34;;;;;;;6.53;4.10;;;;;;;9.83;100.00;93332.16;2521180;23;20067;-83
2023/07/07 00:25:41;;;;;;;8.35;4.20;;;;;;;9.78;100.00;93324.56;2511004;23;20015;-86
2023/07/07 00:27:01;;;;;;;;;;;;;;;9.78;100.00;93323.81;2520315;23;20006;-86
2023/07/07 00:28:38;;;;;;;8.30;4.35;;;;;;;9.75;100.00;93330.00;2524660;23;19912;-83
2023/07/07 00:29:50;;;;;;;9.02;3.60;;;;;;;9.75;100.00;93327.31;2511717;23;20030;-84
2023/07/07 00:31:09;;;;;;;5.15;4.05;;;;;;;9.77;100.00;93328.41;2501882;23;20008;-84
2023/07/07 00:32:31;;;;;;;7.63;4.05;;;;;;;9.65;100.00;93330.88;2501027;23;20037;-81
2023/07/07 00:33:41;;;;;;;8.27;4.43;;;;;;;9.62;100.00;93334.38;2505298;23;20007;-87
2023/07/07 00:35:07;;;;;;;4.97;3.65;;;;;;;9.58;100.00;93329.09;2500067;23;20023;-83
2023/07/07 00:36:23;;;;;;;5.05;3.80;;;;;;;9.56;100.00;93326.81;2503426;23;20007;-84
2023/07/07 00:37:33;;;;;;;7.95;4.13;;;;;;;9.62;100.00;93332.47;2501867;23;20101;-86
2023/07/07 00:38:40;;;;;;;;;;;;;;;9.65;100.00;93331.63;2491820;23;20011;-83
2023/07/07 00:39:50;;;;;;;7.38;4.07;;;;;;;9.71;100.00;93327.38;2488959;23;19917;-86
2023/07/07 00:41:13;;;;;;;7.85;4.20;;;;;;;9.68;100.00;93335.44;2518381;23;20006;-84
2023/07/07 00:42:39;;;;;;;4.78;3.85;;;;;;;9.63;100.00;93331.31;2520964;23;20067;-87
2023/07/07 00:44:12;;;;;;;6.85;3.97;;;;;;;9.57;100.00;93339.00;2497962;23;20010;-88
2023/07/07 00:45:27;;;;;;;6.53;3.75;;;;;;;9.55;100.00;93332.56;2504104;23;20337;-84
2023/07/07 00:46:34;;;;;;;7.30;4.50;;;;;;;9.47;100.00;93334.56;2502647;23;20007;-86
2023/07/07 00:48:01;;;;;;;5.00;4.00;;;;;;;9.61;100.00;93330.94;2509806;23;20010;-86
2023/07/07 00:49:22;;;;;;;10.45;3.97;;;;;;;9.58;100.00;93334.44;2509561;23;20018;-85
2023/07/07 00:51:06;;;;;;;6.80;4.03;;;;;;;9.48;100.00;93333.44;2511621;23;20006;-84
2023/07/07 00:52:36;;;;;;;9.95;4.63;;;;;;;9.44;100.00;93338.06;2517003;23;20002;-86
2023/07/07 00:53:49;;;;;;;5.90;3.75;;;;;;;9.47;100.00;93333.81;2528282;23;20020;-84
2023/07/07 00:55:01;;;;;;;6.47;4.30;;;;;;;9.36;100.00;93346.56;2523073;23;20563;-83
2023/07/07 00:56:35;;;;;;;5.07;3.72;;;;;;;9.41;100.00;93343.44;2508971;23;20003;-86
2023/07/07 00:57:57;;;;;;;9.30;4.53;;;;;;;9.29;100.00;93345.47;2509757;23;20401;-82
2023/07/07 01:01:20;;;;;;;7.15;4.47;;;;;;;9.37;100.00;93340.81;2523251;23;20074;-81
2023/07/07 01:02:37;;;;;;;10.82;4.07;;;;;;;9.37;100.00;93342.72;2509133;23;20022;-82
2023/07/07 01:04:21;;;;;;;5.30;4.13;;;;;;;9.33;100.00;93342.78;2509192;23;20017;-85
2023/07/07 01:05:51;;;;;;;6.80;4.10;;;;;;;9.29;100.00;93342.06;2506756;23;20045;-82
2023/07/07 01:07:07;;;;;;;;;;;;;;;9.31;100.00;93339.75;2526466;23;20001;-81
2023/07/07 01:08:32;;;;;;;6.47;4.07;;;;;;;9.33;100.00;93343.53;2520540;23;19909;-82
2023/07/07 01:09:47;;;;;;;8.73;4.07;;;;;;;9.30;100.00;93343.56;2517271;23;20062;-86
2023/07/07 01:11:13;;;;;;;9.32;3.90;;;;;;;9.35;100.00;93340.47;2520197;23;20062;-85
2023/07/07 01:12:24;;;;;;;6.28;3.95;;;;;;;9.34;100.00;93346.94;2523660;23;20084;-84
2023/07/07 01:13:36;;;;;;;6.30;4.10;;;;;;;9.35;100.00;93343.13;2515139;23;20469;-84
2023/07/07 01:14:56;;;;;;;7.90;4.88;;;;;;;9.30;100.00;93346.22;2522067;23;20010;-83
2023/07/07 01:16:19;;;;;;;6.88;4.15;;;;;;;9.26;100.00;93348.19;2515583;23;20086;-83
2023/07/07 01:17:47;;;;;;;9.27;4.65;;;;;;;9.30;100.00;93340.91;2534880;23;20463;-83
2023/07/07 01:19:05;;;;;;;7.35;4.55;;;;;;;9.17;100.00;93339.94;2522042;23;20006;-86
2023/07/07 01:20:41;;;;;;;7.28;4.38;;;;;;;9.17;100.00;93340.69;2516337;23;20671;-86
2023/07/07 01:22:26;;;;;;;7.50;3.95;;;;;;;9.16;100.00;93341.09;2519410;23;20006;-88
2023/07/07 01:23:57;;;;;;;7.10;4.22;;;;;;;9.26;100.00;93337.50;2515098;23;20640;-84
2023/07/07 01:25:55;;;;;;;6.93;4.30;;;;;;;9.15;100.00;93339.59;2510489;23;20010;-87
2023/07/07 01:27:36;;;;;;;9.57;4.65;;;;;;;9.16;100.00;93335.75;2531391;23;20010;-84
2023/07/07 01:29:16;;;;;;;7.22;4.20;;;;;;;9.10;100.00;93342.69;2517558;23;20049;-88
2023/07/07 01:30:55;;;;;;;8.82;4.40;;;;;;;9.11;100.00;93344.97;2514936;23;20093;-83
2023/07/07 01:32:17;;;;;;;7.80;4.22;;;;;;;9.12;100.00;93335.78;2513684;23;20037;-84
2023/07/07 01:33:41;;;;;;;;;;;;;;;;;;;;;
2023/07/07 01:37:03;;;;;;;11.40;4.63;;;;;;;8.97;100.00;93343.22;2528742;23;20084;-83
2023/07/07 01:38:38;;;;;;;8.73;4.50;;;;;;;9.06;100.00;93342.75;2511744;23;20373;-84
2023/07/07 01:40:13;;;;;;;7.25;4.05;;;;;;;9.01;100.00;93346.59;2519513;23;20016;-85
2023/07/07 01:41:56;;;;;;;6.07;4.20;;;;;;;9.00;100.00;93344.31;2525832;23;20085;-84
2023/07/07 01:43:29;;;;;;;6.05;4.55;;;;;;;8.91;100.00;93344.84;2516520;23;20006;-85
2023/07/07 01:44:59;;;;;;;9.13;4.47;;;;;;;8.97;100.00;93351.22;2521156;23;20009;-84
2023/07/07 01:46:38;;;;;;;11.13;4.60;;;;;;;8.96;100.00;93344.38;2527034;23;20016;-86
2023/07/07 01:48:27;;;;;;;6.22;3.90;;;;;;;8.87;100.00;93343.34;2528841;23;20025;-86
2023/07/07 01:50:07;;;;;;;7.63;4.13;;;;;;;8.91;100.00;93350.16;2488088;23;20004;-84
2023/07/07 01:51:29;;;;;;;8.55;4.78;;;;;;;8.91;100.00;93349.38;2513217;23;20258;-82
2023/07/07 01:52:52;;;;;;;8.80;4.35;;;;;;;8.91;100.00;93349.38;2513687;23;20010;-84
2023/07/07 01:54:13;;;;;;;8.25;4.38;;;;;;;8.92;100.00;93342.91;2523978;23;20006;-84
2023/07/07 01:56:06;;;;;;;7.93;5.13;;;;;;;8.92;100.00;93348.25;2524072;23;20018;-82
2023/07/07 01:57:24;;;;;;;11.40;4.40;;;;;;;8.89;100.00;93343.72;2518999;23;20071;-85
2023/07/07 01:58:59;;;;;;;6.38;4.15;;;;;;;8.84;100.00;93342.25;2523716;23;20010;-85
2023/07/07 02:00:23;;;;;;;7.57;4.03;;;;;;;8.90;100.00;93347.88;2512022;23;20045;-83
2023/07/07 02:01:31;;;;;;;7.00;4.68;;;;;;;8.83;100.00;93346.81;2521822;23;20005;-85
2023/07/07 02:03:01;;;;;;;8.70;5.30;;;;;;;8.80;100.00;93344.19;2510500;23;20017;-85
2023/07/07 02:04:14;;;;;;;8.55;4.22;;;;;;;8.82;100.00;93347.97;2507260;23;20010;-84
2023/07/07 02:05:26;;;;;;;8.85;4.63;;;;;;;8.77;100.00;93343.06;2501229;23;20082;-84
2023/07/07 02:06:34;;;;;;;10.70;4.28;;;;;;;8.76;100.00;93344.22;2502248;23;20094;-87
2023/07/07 02:07:57;;;;;;;10.00;4.47;;;;;;;8.70;100.00;93337.06;2513657;23;20018;-83
2023/07/07 02:09:24;;;;;;;6.85;4.55;;;;;;;8.76;100.00;93346.88;2523970;23;20714;-86
2023/07/07 02:10:54;;;;;;;7.15;4.78;;;;;;;8.74;100.00;93338.53;2512467;23;20010;-85
2023/07/07 02:12:18;;;;;;;7.47;5.13;;;;;;;8.69;100.00;93346.19;2508561;23;20006;-88
2023/07/07 02:13:31;;;;;;;6.55;4.25;;;;;;;8.73;100.00;93337.00;2514160;23;20452;-84
2023/07/07 02:57:58;;;;;;;8.63;5.60;;;;;;;8.20;100.00;93348.19;2585659;22;20027;-85
2023/07/07 02:59:05;;;;;;;8.40;5.38;;;;;;;8.22;100.00;93330.66;2572400;23;20352;-85
2023/07/07 03:00:13;;;;;;;9.85;5.60;;;;;;;8.22;100.00;93346.66;2559657;23;20011;-86
2023/07/07 03:01:24;;;;;;;13.45;5.72;;;;;;;8.20;100.00;93340.19;2538412;23;19998;-86
2023/07/07 03:02:28;;;;;;;7.75;4.82;;;;;;;8.29;100.00;93340.47;2539592;23;20044;-85
2023/07/07 03:03:35;;;;;;;10.20;5.30;;;;;;;8.25;100.00;93342.41;2548043;23;20481;-86
2023/07/07 03:04:41;;;;;;;10.70;4.88;;;;;;;8.19;100.00;93341.34;2537479;23;20092;-86
2023/07/07 03:05:49;;;;;;;10.75;5.40;;;;;;;8.17;100.00;93338.34;2537155;23;20088;-85
2023/07/07 03:06:55;;;;;;;7.85;4.60;;;;;;;8.19;100.00;93338.69;2538057;23;20077;-86
2023/07/07 03:08:02;;;;;;;6.95;4.95;;;;;;;8.14;100.00;93339.13;2561315;23;19997;-86
2023/07/07 03:09:11;;;;;;;13.10;6.10;;;;;;;8.12;100.00;93339.53;2548627;23;20036;-86
2023/07/07 03:10:17;;;;;;;8.15;4.93;;;;;;;8.13;100.00;93343.69;2538745;23;20005;-86
2023/07/07 03:11:23;;;;;;;10.48;5.00;;;;;;;8.18;100.00;93340.59;2537685;23;20421;-86
2023/07/07 03:12:28;;;;;;;7.43;4.72;;;;;;;8.19;100.00;93350.09;2537567;23;20012;-86
2023/07/07 03:13:34;;;;;;;10.38;5.55;;;;;;;8.16;100.00;93350.13;2561714;23;20651;-85
2023/07/07 03:14:42;;;;;;;7.60;5.30;;;;;;;8.11;100.00;93353.22;2559678;23;20040;-86
2023/07/07 03:15:48;;;;;;;7.65;5.00;;;;;;;8.14;100.00;93342.53;2537879;23;20005;-85
2023/07/07 03:16:57;;;;;;;7.65;5.03;;;;;;;8.09;100.00;93345.63;2537346;23;20389;-85
2023/07/07 03:18:11;;;;;;;7.70;4.93;;;;;;;8.08;100.00;93342.22;2538392;23;20021;-85
2023/07/07 03:19:19;;;;;;;8.27;5.00;;;;;;;8.10;100.00;93344.47;2540869;23;20798;-86
2023/07/07 03:20:29;;;;;;;10.38;5.57;;;;;;;8.10;100.00;93343.72;2550614;23;20408;-86
2023/07/07 03:21:38;;;;;;;8.18;5.50;;;;;;;8.08;100.00;93352.09;2549277;23;20116;-86
2023/07/07 03:22:46;;;;;;;8.38;5.30;;;;;;;8.10;100.00;93344.47;2538657;23;20488;-86
2023/07/07 03:23:56;;;;;;;12.32;4.90;;;;;;;8.08;100.00;93354.78;2538471;23;20001;-85
2023/07/07 03:25:06;;;;;;;8.57;4.60;;;;;;;8.07;100.00;93339.94;2539058;23;20029;-86
2023/07/07 03:26:14;;;;;;;9.43;5.25;;;;;;;7.99;100.00;93349.13;2538386;23;20563;-86
2023/07/07 03:27:22;;;;;;;7.57;5.20;;;;;;;7.98;100.00;93350.28;2549299;23;20040;-85
2023/07/07 03:28:29;;;;;;;9.80;5.05;;;;;;;7.96;100.00;93342.69;2538084;23;20005;-85
2023/07/07 03:29:37;;;;;;;8.85;5.15;;;;;;;7.98;100.00;93344.94;2549878;23;20113;-86
2023/07/07 03:30:44;;;;;;;7.25;5.05;;;;;;;7.92;100.00;93349.19;2549230;23;20685;-86
2023/07/07 03:31:48;;;;;;;12.27;5.70;;;;;;;7.88;100.00;93343.13;2527769;23;20418;-85
2023/07/07 03:32:55;;;;;;;10.48;5.68;;;;;;;7.93;100.00;93345.38;2522852;23;20013;-85
2023/07/07 03:34:05;;;;;;;11.73;5.80;;;;;;;7.94;100.00;93341.56;2535471;23;20010;-85
2023/07/07 03:35:11;;;;;;;8.80;5.47;;;;;;;7.92;100.00;93335.88;2546621;23;20085;-86
2023/07/07 03:36:21;;;;;;;10.70;5.38;;;;;;;7.89;100.00;93340.06;2556377;23;20005;-85
2023/07/07 03:37:28;;;;;;;7.72;5.22;;;;;;;7.83;100.00;93337.09;2544498;23;20088;-86
2023/07/07 03:38:33;;;;;;;9.82;5.28;;;;;;;7.88;100.00;93335.16;2522831;23;20010;-85
2023/07/07 03:39:39;;;;;;;8.27;5.28;;;;;;;7.90;100.00;93338.94;2522243;23;20013;-86
2023/07/07 03:40:53;;;;;;;6.55;4.88;;;;;;;7.84;100.00;93343.16;2533632;23;20044;-85
2023/07/07 03:42:01;;;;;;;11.43;5.53;;;;;;;7.81;100.00;93346.59;2537559;23;20008;-85
2023/07/07 03:43:12;;;;;;;11.18;4.90;;;;;;;7.81;100.00;93342.06;2544387;23;20009;-86
2023/07/07 03:44:18;;;;;;;10.00;5.32;;;;;;;7.87;100.00;93345.03;2536494;23;20048;-86
2023/07/07 03:45:28;;;;;;;6.65;4.95;;;;;;;7.93;100.00;93342.72;2544909;23;20005;-85
2023/07/07 03:46:36;;;;;;;10.18;5.25;;;;;;;7.97;100.00;93352.19;2546135;23;20448;-86
2023/07/07 03:47:45;;;;;;;11.98;5.22;;;;;;;7.91;100.00;93347.69;2533555;23;20061;-85
2023/07/07 03:48:53;;;;;;;8.25;4.63;;;;;;;7.85;100.00;93352.66;2523624;23;20611;-86
2023/07/07 03:50:00;;;;;;;7.75;4.97;;;;;;;7.91;100.00;93355.66;2533636;23;20061;-86
2023/07/07 03:51:07;;;;;;;8.60;5.38;;;;;;;7.96;100.00;93348.00;2523026;23;20418;-85
2023/07/07 03:52:16;;;;;;;7.53;4.45;;;;;;;7.96;100.00;93350.66;2544573;23;20033;-86
2023/07/07 03:53:23;;;;;;;7.47;4.72;;;;;;;7.98;100.00;93353.69;2533819;23;20656;-85
2023/07/07 03:54:31;;;;;;;8.75;5.10;;;;;;;7.94;100.00;93355.63;2545810;23;20014;-85
2023/07/07 03:55:40;;;;;;;8.43;5.15;;;;;;;7.97;100.00;93354.09;2534083;23;20393;-85
2023/07/07 03:56:50;;;;;;;11.00;5.45;;;;;;;8.00;100.00;93348.00;2533877;23;20005;-85
2023/07/07 03:58:00;;;;;;;7.72;5.22;;;;;;;7.98;100.00;93353.69;2535790;23;20025;-85
2023/07/07 03:59:06;;;;;;;;;;;;;;;8.01;100.00;93350.25;2545083;23;20365;-85
2023/07/07 04:00:13;;;;;;;10.15;5.68;;;;;;;7.88;100.00;93359.09;2522121;23;20325;-85
2023/07/07 04:01:25;;;;;;;6.60;4.68;;;;;;;7.89;100.00;93356.03;2546698;23;20092;-85
2023/07/07 04:02:33;;;;;;;10.05;5.20;;;;;;;7.97;100.00;93362.81;2553898;23;20008;-86
2023/07/07 04:03:42;;;;;;;8.02;5.05;;;;;;;8.02;100.00;93354.41;2523460;23;20010;-86
2023/07/07 04:04:48;;;;;;;10.27;5.28;;;;;;;7.99;100.00;93359.75;2534304;23;20014;-86
2023/07/07 04:05:56;;;;;;;7.82;5.03;;;;;;;7.98;100.00;93351.03;2534424;23;20012;-85
2023/07/07 04:07:01;;;;;;;9.68;5.40;;;;;;;7.98;100.00;93353.69;2544452;23;20017;-86
2023/07/07 04:08:15;;;;;;;9.40;5.80;;;;;;;8.03;100.00;93350.63;2533878;23;20044;-86
2023/07/07 04:09:21;;;;;;;12.25;5.03;;;;;;;7.99;100.00;93354.44;2535107;23;20025;-86
2023/07/07 04:10:32;;;;;;;9.13;5.22;;;;;;;8.04;100.00;93356.69;2534665;23;20040;-85
2023/07/07 04:11:39;;;;;;;8.50;5.28;;;;;;;8.02;100.00;93354.41;2534139;23;20002;-86
2023/07/07 04:12:46;;;;;;;10.73;5.20;;;;;;;8.02;100.00;93351.75;2534786;23;20029;-86
2023/07/07 04:13:55;;;;;;;9.38;5.18;;;;;;;8.05;100.00;93350.97;2534198;23;20461;-86
2023/07/07 04:15:04;;;;;;;9.77;5.18;;;;;;;8.05;100.00;93353.63;2536384;23;20029;-87
2023/07/07 04:16:30;;;;;;;8.38;5.18;;;;;;;8.06;100.00;93349.81;2532837;23;20010;-86
2023/07/07 04:17:34;;;;;;;7.32;4.50;;;;;;;8.04;100.00;93352.13;2530732;23;20012;-86
2023/07/07 04:18:41;;;;;;;7.10;5.25;;;;;;;8.10;100.00;93352.44;2533970;23;20054;-87
2023/07/07 04:19:47;;;;;;;8.02;4.82;;;;;;;8.14;100.00;93341.78;2533360;23;20012;-86
2023/07/07 04:20:49;;;;;;;8.65;5.50;;;;;;;8.11;100.00;93345.97;2534252;23;20024;-86
2023/07/07 04:21:50;;;;;;;10.45;5.38;;;;;;;8.08;100.00;93355.53;2532503;23;20017;-86
2023/07/07 04:22:51;;;;;;;11.43;5.90;;;;;;;8.12;100.00;93352.06;2519921;23;20129;-86
2023/07/07 04:23:53;;;;;;;10.18;5.63;;;;;;;8.18;100.00;93350.50;2520238;23;20010;-86
2023/07/07 04:25:12;;;;;;;13.45;5.32;;;;;;;8.16;100.00;93353.53;2533276;23;20033;-85
2023/07/07 04:26:14;;;;;;;9.68;5.10;;;;;;;8.17;100.00;93354.31;2535895;23;20006;-85
2023/07/07 04:27:15;;;;;;;12.15;6.05;;;;;;;8.17;100.00;93362.31;2532748;23;20005;-85
2023/07/07 04:28:16;;;;;;;10.10;5.65;;;;;;;8.24;100.00;93354.22;2532146;23;20017;-86
2023/07/07 04:29:17;;;;;;;10.55;5.70;;;;;;;8.25;100.00;93356.53;2544475;23;20006;-86
2023/07/07 04:30:18;;;;;;;11.52;5.35;;;;;;;8.30;100.00;93355.34;2544639;23;20060;-86
2023/07/07 04:31:20;;;;;;;8.23;5.13;;;;;;;8.35;100.00;93357.56;2532229;23;19994;-85
2023/07/07 04:32:21;;;;;;;8.77;5.20;;;;;;;8.35;100.00;93356.81;2519031;23;20077;-85
2023/07/07 04:33:24;;;;;;;10.18;5.60;;;;;;;8.37;100.00;93359.84;2542937;23;20005;-85
2023/07/07 04:34:26;;;;;;;14.68;5.65;;;;;;;8.40;100.00;93354.50;2531314;23;20342;-86
2023/07/07 04:35:27;;;;;;;11.90;5.68;;;;;;;8.44;100.00;93362.47;2519969;23;20029;-86
2023/07/07 04:36:28;;;;;;;9.52;5.80;;;;;;;8.48;100.00;93358.59;2518769;23;20061;-85
2023/07/07 04:37:31;;;;;;;12.68;6.00;;;;;;;8.50;100.00;93363.53;2543771;23;20499;-85
2023/07/07 04:38:32;;;;;;;9.13;5.95;;;;;;;8.49;100.00;93357.44;2555497;23;20420;-85
2023/07/07 04:39:33;;;;;;;9.57;5.70;;;;;;;8.52;100.00;93363.91;2543534;23;20005;-85
2023/07/07 04:40:34;;;;;;;11.07;6.00;;;;;;;8.51;100.00;93363.13;2531496;23;20418;-86
2023/07/07 04:41:35;;;;;;;8.98;5.50;;;;;;;8.54;100.00;93372.25;2518923;23;20142;-85
2023/07/07 04:42:36;;;;;;;9.77;5.65;;;;;;;8.61;100.00;93369.53;2519463;23;20007;-85
2023/07/07 04:43:41;;;;;;;10.23;5.43;;;;;;;8.61;100.00;93366.84;2532281;23;20505;-85
2023/07/07 04:44:42;;;;;;;12.85;6.47;;;;;;;8.65;100.00;93370.25;2531576;23;20006;-85
2023/07/07 04:45:44;;;;;;;11.68;6.32;;;;;;;8.69;100.00;93370.19;2519872;23;20006;-86
2023/07/07 04:46:46;;;;;;;9.50;5.82;;;;;;;8.71;100.00;93365.97;2523891;23;20016;-85
2023/07/07 04:47:47;;;;;;;13.55;6.30;;;;;;;8.76;100.00;93370.13;2513739;23;20014;-85
2023/07/07 04:48:48;;;;;;;9.43;6.07;;;;;;;8.78;100.00;93376.56;2514869;23;20026;-84
2023/07/07 04:49:49;;;;;;;10.10;6.03;;;;;;;8.86;100.00;93376.47;2515807;23;20006;-84
2023/07/07 04:50:55;;;;;;;13.75;6.32;;;;;;;8.89;100.00;93370.38;2529217;23;20053;-85
2023/07/07 04:51:56;;;;;;;12.20;6.65;;;;;;;8.91;100.00;93370.72;2526887;23;20006;-83
2023/07/07 04:52:57;;;;;;;13.07;6.60;;;;;;;8.97;100.00;93372.56;2527743;23;20010;-84
2023/07/07 04:53:58;;;;;;;12.15;6.20;;;;;;;8.97;100.00;93371.81;2516860;23;20030;-85
2023/07/07 04:54:59;;;;;;;14.70;6.82;;;;;;;9.03;100.00;93365.59;2516859;23;20002;-84
2023/07/07 04:56:04;;;;;;;13.80;6.60;;;;;;;9.07;100.00;93361.00;2518011;23;20011;-84
2023/07/07 04:57:05;;;;;;;15.27;7.65;;;;;;;9.06;100.00;93372.06;2519479;23;20680;-85
2023/07/07 04:58:06;;;;;;;15.98;6.20;;;;;;;9.12;100.00;93361.72;2529347;23;20608;-85
2023/07/07 04:59:07;;;;;;;15.52;6.57;;;;;;;9.19;100.00;93366.97;2542562;23;20001;-86
2023/07/07 05:00:10;;;;;;;13.13;7.10;;;;;;;9.20;100.00;93369.22;2529705;23;20041;-85
2023/07/07 05:01:17;;;;;;;11.95;6.90;;;;;;;9.25;100.00;93365.34;2530223;23;20006;-85
2023/07/07 05:02:22;;;;;;;14.00;7.13;;;;;;;9.30;100.00;93367.56;2531328;23;20009;-85
2023/07/07 05:03:23;;;;;;;14.93;7.10;;;;;;;9.33;100.00;93364.09;2519511;23;20010;-86
2023/07/07 05:04:26;;;;;;;17.73;6.88;;;;;;;9.33;100.00;93372.13;2530120;23;20038;-86
2023/07/07 05:05:27;;;;;;;16.35;7.15;;;;;;;9.31;100.00;93369.09;2542599;23;20002;-85
2023/07/07 05:06:31;;;;;;;13.95;6.95;;;;;;;9.36;100.00;93367.91;2542033;23;20044;-86
2023/07/07 05:07:32;;;;;;;17.77;7.10;;;;;;;9.38;100.00;93374.31;2543489;23;20457;-85
2023/07/07 05:08:37;;;;;;;15.55;7.53;;;;;;;9.45;100.00;93374.25;2530506;23;20041;-86
2023/07/07 05:09:38;;;;;;;13.98;6.88;;;;;;;9.47;100.00;93374.59;2520506;23;20010;-85
2023/07/07 05:10:39;;;;;;;15.43;6.70;;;;;;;9.51;100.00;93371.88;2518586;23;20098;-86
2023/07/07 05:11:40;;;;;;;16.10;7.28;;;;;;;9.54;100.00;93368.41;2530967;23;20002;-85
2023/07/07 05:12:42;;;;;;;14.75;7.07;;;;;;;9.55;100.00;93372.59;2543216;23;20037;-85
2023/07/07 05:13:48;;;;;;;15.75;7.35;;;;;;;9.59;100.00;93368.72;2543054;23;20008;-85
2023/07/07 05:14:52;;;;;;;13.88;7.38;;;;;;;9.62;100.00;93363.75;2531509;23;20037;-87
2023/07/07 05:16:01;;;;;;;15.15;7.60;;;;;;;9.71;100.00;93369.31;2521143;23;20059;-86
2023/07/07 05:17:03;;;;;;;16.20;7.03;;;;;;;9.76;100.00;93369.63;2522737;23;20378;-86
2023/07/07 05:18:05;;;;;;;14.13;6.88;;;;;;;9.80;100.00;93367.66;2539724;23;20002;-85
2023/07/07 05:19:07;;;;;;;14.38;7.22;;;;;;;9.83;100.00;93374.88;2549248;23;20622;-85
2023/07/07 05:20:08;;;;;;;14.65;7.60;;;;;;;9.88;100.00;93378.22;2531937;23;20029;-86
2023/07/07 05:21:12;;;;;;;17.25;7.43;;;;;;;9.92;100.00;93379.69;2520142;23;20089;-90
2023/07/07 05:22:14;;;;;;;16.35;6.70;;;;;;;9.99;100.00;93378.81;2521918;23;20547;-88
2023/07/07 05:23:17;;;;;;;19.88;6.75;;;;;;;10.06;100.00;93376.81;2532590;23;20010;-89
2023/07/07 05:24:18;;;;;;;19.30;7.82;;;;;;;10.12;100.00;93384.34;2533504;23;20422;-88
2023/07/07 05:25:21;;;;;;;24.40;8.10;;;;;;;10.19;100.00;93386.91;2545290;23;20529;-88
2023/07/07 05:26:29;;;;;;;24.20;9.00;;;;;;;10.26;100.00;93384.91;2532910;23;20046;-89
2023/07/07 05:27:30;;;;;;;19.85;7.75;;;;;;;10.32;100.00;93382.53;2523332;23;20014;-89
2023/07/07 05:28:32;;;;;;;20.00;8.23;;;;;;;10.36;100.00;93382.44;2520514;23;20013;-87
2023/07/07 05:29:33;;;;;;;19.33;7.93;;;;;;;10.41;100.00;93384.69;2544486;23;20016;-86
2023/07/07 05:30:38;;;;;;;15.00;7.45;;;;;;;10.48;100.00;93390.63;2520420;23;20085;-86
2023/07/07 05:31:40;;;;;;;15.30;7.85;;;;;;;10.51;100.00;93386.41;2532697;23;20012;-86
2023/07/07 05:32:43;;;;;;;15.35;8.15;;;;;;;10.57;100.00;93393.53;2533359;23;20053;-86
2023/07/07 05:33:46;;;;;;;18.00;8.32;;;;;;;10.59;100.00;93391.22;2544796;23;20048;-86
2023/07/07 05:34:49;;;;;;;19.95;8.88;;;;;;;10.66;100.00;93394.94;2556756;23;20019;-85
2023/07/07 05:35:58;;;;;;;17.40;7.90;;;;;;;10.71;100.00;93400.56;2544387;23;20041;-85
2023/07/07 05:37:04;;;;;;;18.52;8.52;;;;;;;10.77;100.00;93385.56;2535434;23;20002;-86
2023/07/07 05:38:12;;;;;;;19.05;8.30;;;;;;;10.85;100.00;93394.22;2533430;23;20009;-85
2023/07/07 05:39:21;;;;;;;24.23;9.70;;;;;;;10.90;100.00;93393.72;2534059;23;20089;-85
2023/07/07 05:40:31;;;;;;;18.27;8.65;;;;;;;11.01;100.00;93391.59;2522940;23;20017;-84
2023/07/07 05:41:39;;;;;;;24.00;8.57;;;;;;;11.09;100.00;93394.91;2523183;23;20398;-86
2023/07/07 05:42:49;;;;;;;20.65;9.20;;;;;;;11.14;100.00;93382.97;2534878;23;20014;-86
2023/07/07 05:43:55;;;;;;;19.63;8.82;;;;;;;11.21;100.00;93385.50;2544065;23;20014;-86
2023/07/07 05:45:04;;;;;;;28.58;8.75;;;;;;;11.23;100.00;93391.94;2544888;23;20569;-85
2023/07/07 05:46:15;;;;;;;16.77;8.20;;;;;;;11.29;100.00;93381.53;2533821;23;20009;-86
2023/07/07 05:47:23;;;;;;;17.40;8.45;;;;;;;11.37;100.00;93385.56;2536280;23;20097;-86
2023/07/07 05:48:28;;;;;;;19.98;8.18;;;;;;;11.46;100.00;93385.00;2533445;23;20062;-86
2023/07/07 05:49:29;;;;;;;16.48;7.47;;;;;;;11.47;100.00;93384.59;2520995;23;20009;-85
2023/07/07 05:50:30;;;;;;;24.02;8.55;;;;;;;11.52;100.00;93380.66;2531772;23;20009;-85
2023/07/07 05:51:31;;;;;;;14.23;7.90;;;;;;;11.54;100.00;93381.75;2519815;23;19999;-86
2023/07/07 05:52:34;;;;;;;16.13;7.45;;;;;;;11.60;100.00;93382.78;2532083;23;20008;-86
2023/07/07 05:53:43;;;;;;;16.70;7.93;;;;;;;11.69;100.00;93384.16;2532583;23;20101;-86
2023/07/07 05:54:44;;;;;;;18.98;8.25;;;;;;;11.76;100.00;93381.28;2522851;23;20017;-86
2023/07/07 05:55:48;;;;;;;15.70;8.02;;;;;;;11.84;100.00;93385.34;2532166;23;20029;-85
2023/07/07 05:56:50;;;;;;;18.05;8.25;;;;;;;11.91;100.00;93387.13;2520309;23;20018;-85
2023/07/07 05:57:51;;;;;;;17.63;8.52;;;;;;;11.97;100.00;93388.13;2519551;23;20038;-85
2023/07/07 05:58:55;;;;;;;14.63;7.82;;;;;;;12.07;100.00;93387.91;2531899;23;20089;-86
2023/07/07 05:59:58;;;;;;;19.38;8.40;;;;;;;12.17;100.00;93388.06;2532394;23;20052;-85
2023/07/07 06:01:00;;;;;;;18.92;8.60;;;;;;;12.24;100.00;93385.22;2520590;23;20018;-86
2023/07/07 06:02:01;;;;;;;20.10;8.50;;;;;;;12.31;100.00;93393.84;2519961;23;20085;-86
2023/07/07 06:03:02;;;;;;;20.95;8.25;;;;;;;12.39;100.00;93388.31;2532253;23;20010;-86
2023/07/07 06:04:05;;;;;;;21.02;8.38;;;;;;;12.43;100.00;93389.75;2531829;23;20535;-85
2023/07/07 06:05:08;;;;;;;17.48;8.80;;;;;;;12.50;100.00;93386.88;2544498;23;20005;-85
2023/07/07 06:06:11;;;;;;;17.10;8.65;;;;;;;12.55;100.00;93386.34;2543679;23;20361;-85
2023/07/07 06:07:12;;;;;;;17.10;8.27;;;;;;;12.64;100.00;93390.38;2532341;23;20038;-86
2023/07/07 06:08:14;;;;;;;25.13;8.63;;;;;;;12.68;100.00;93391.03;2519937;23;20002;-85
2023/07/07 06:09:15;;;;;;;19.45;8.50;;;;;;;12.74;100.00;93389.38;2520824;23;20093;-85
2023/07/07 06:10:17;;;;;;;19.25;8.93;;;;;;;12.78;100.00;93390.78;2544197;23;20500;-85
2023/07/07 06:11:18;;;;;;;16.85;8.35;;;;;;;12.82;100.00;93390.69;2531892;23;20087;-86
2023/07/07 06:12:20;;;;;;;15.77;8.25;;;;;;;12.89;100.00;93393.19;2544152;23;20028;-85
2023/07/07 06:13:24;;;;;;;17.10;8.65;;;;;;;12.98;100.00;93390.63;2531762;23;20057;-86
2023/07/07 06:14:26;;;;;;;17.58;8.23;;;;;;;13.08;100.00;93391.53;2521222;23;20014;-86
2023/07/07 06:15:28;;;;;;;17.90;8.07;;;;;;;13.14;100.00;93386.41;2532521;23;20531;-85
2023/07/07 06:16:30;;;;;;;18.45;8.82;;;;;;;13.18;100.00;93384.38;2532128;23;20002;-86
2023/07/07 06:17:32;;;;;;;18.42;9.23;;;;;;;13.31;100.00;93394.00;2532574;23;20056;-86
2023/07/07 06:18:34;;;;;;;14.90;7.43;;;;;;;13.44;100.00;93390.59;2531893;23;20064;-86
2023/07/07 06:19:36;;;;;;;17.40;8.73;;;;;;;13.50;100.00;93388.88;2532942;23;20006;-86
2023/07/07 06:20:37;;;;;;;16.92;8.05;;;;;;;13.57;100.00;93394.06;2531728;23;20093;-86